Time;durP1;ratioP1;P1;durP2;ratioP2;P2;SDS_P1;SDS_P2;PMS_P1;PMS_P2;Temp;Humidity;BMP_temperature;BMP_pressure;BME280_temperature;BME280_humidity;BME280_pressure;Samples;Min_cycle;Max_cycle;Signal;HPM_P1;HPM_P2
2023/07/20 00:01:10;;;;;;;1.80;1.00;;;20.80;84.20;;;;;;5088979;28;20077;-78
2023/07/20 00:03:36;;;;;;;2.80;1.20;;;20.80;84.20;;;;;;5090556;28;20468;-79
2023/07/20 00:06:04;;;;;;;2.05;1.00;;;20.80;84.20;;;;;;5090752;28;20052;-81
2023/07/20 00:08:29;;;;;;;1.73;1.10;;;20.80;84.20;;;;;;5089379;28;20081;-79
2023/07/20 00:10:55;;;;;;;1.65;1.00;;;20.80;84.20;;;;;;5089181;28;20032;-80
2023/07/20 00:13:21;;;;;;;2.03;1.20;;;20.80;84.20;;;;;;5089078;28;20073;-79
2023/07/20 00:15:47;;;;;;;2.85;1.10;;;20.80;84.20;;;;;;5088989;28;20043;-77
2023/07/20 00:18:13;;;;;;;2.33;1.08;;;20.80;84.10;;;;;;5090420;28;20047;-79
2023/07/20 00:20:38;;;;;;;1.05;0.90;;;20.80;84.10;;;;;;5088665;28;20049;-79
2023/07/20 00:23:04;;;;;;;1.52;1.00;;;20.90;84.20;;;;;;5089867;28;20028;-79
2023/07/20 00:25:30;;;;;;;1.58;1.00;;;20.90;84.10;;;;;;5090558;28;20153;-80
2023/07/20 00:27:55;;;;;;;1.35;0.98;;;21.00;84.00;;;;;;5088576;28;20039;-79
2023/07/20 00:30:21;;;;;;;2.17;1.17;;;20.90;84.00;;;;;;5090174;28;20481;-80
2023/07/20 00:32:46;;;;;;;1.67;1.02;;;20.90;83.90;;;;;;5089803;28;20032;-78
2023/07/20 00:35:12;;;;;;;2.35;1.10;;;20.90;83.90;;;;;;5088344;28;20020;-79
2023/07/20 00:37:39;;;;;;;1.88;1.00;;;20.90;83.90;;;;;;5089784;28;20028;-78
2023/07/20 00:40:07;;;;;;;2.22;1.13;;;21.00;83.90;;;;;;5089739;28;20031;-79
2023/07/20 00:42:32;;;;;;;1.92;1.00;;;20.90;83.80;;;;;;5089645;28;20103;-79
2023/07/20 00:44:58;;;;;;;1.80;1.00;;;20.90;83.80;;;;;;5088245;28;20111;-80
2023/07/20 00:47:24;;;;;;;2.88;1.00;;;21.00;84.00;;;;;;5089619;28;20035;-79
2023/07/20 00:49:51;;;;;;;2.28;1.27;;;20.90;83.90;;;;;;5089563;28;20558;-79
2023/07/20 00:52:18;;;;;;;1.58;1.13;;;20.90;84.00;;;;;;5088302;28;20022;-79
2023/07/20 00:54:44;;;;;;;2.60;1.15;;;20.90;84.00;;;;;;5087969;28;20020;-79
2023/07/20 00:57:09;;;;;;;2.10;0.93;;;20.80;84.00;;;;;;5087835;28;20028;-79
2023/07/20 00:59:35;;;;;;;1.42;1.10;;;20.90;84.60;;;;;;5088976;28;20054;-78
2023/07/20 01:02:02;;;;;;;1.25;0.98;;;20.80;84.20;;;;;;5089104;28;20070;-79
2023/07/20 01:04:28;;;;;;;1.70;1.08;;;20.80;84.20;;;;;;5087542;28;20479;-79
2023/07/20 01:07:10;;;;;;;1.73;1.00;;;20.80;84.20;;;;;;5087070;28;20062;-79
2023/07/20 01:10:04;;;;;;;2.10;0.90;;;20.80;84.30;;;;;;5088077;28;20024;-79
2023/07/20 01:12:41;;;;;;;2.90;1.33;;;20.80;84.30;;;;;;5087597;28;20349;-79
2023/07/20 01:15:07;;;;;;;2.13;0.95;;;20.80;84.30;;;;;;5086871;28;20028;-79
2023/07/20 01:17:36;;;;;;;2.30;1.20;;;20.80;84.30;;;;;;5089951;28;20024;-80
2023/07/20 01:20:03;;;;;;;1.90;1.05;;;20.80;84.30;;;;;;5090787;28;20020;-80
2023/07/20 01:22:56;;;;;;;1.83;1.00;;;20.80;84.40;;;;;;5090876;28;20024;-79
2023/07/20 01:25:41;;;;;;;1.27;0.80;;;20.80;84.30;;;;;;5092020;28;20016;-80
2023/07/20 01:28:26;;;;;;;1.75;1.00;;;20.80;84.40;;;;;;5090258;28;20016;-80
2023/07/20 01:31:16;;;;;;;1.65;1.00;;;20.80;84.40;;;;;;5089765;28;20027;-80
2023/07/20 01:33:43;;;;;;;1.15;0.90;;;20.80;84.40;;;;;;5089599;28;20016;-80
2023/07/20 01:36:09;;;;;;;1.77;1.00;;;20.70;84.30;;;;;;5089144;28;20051;-80
2023/07/20 01:38:37;;;;;;;1.45;1.08;;;20.70;84.30;;;;;;5090542;28;20031;-79
2023/07/20 01:41:03;;;;;;;1.45;1.13;;;20.80;84.40;;;;;;5091430;28;20468;-80
2023/07/20 01:43:29;;;;;;;2.65;1.20;;;20.70;84.30;;;;;;5090209;28;20035;-79
2023/07/20 01:45:54;;;;;;;1.38;0.95;;;20.70;84.30;;;;;;5090539;28;20020;-80
2023/07/20 01:48:19;;;;;;;1.65;0.90;;;20.80;84.30;;;;;;5089790;28;20228;-79
2023/07/20 01:50:45;;;;;;;1.45;0.90;;;20.80;84.30;;;;;;5091969;28;20030;-80
2023/07/20 01:53:11;;;;;;;0.80;0.80;;;20.80;84.20;;;;;;5089517;28;20030;-79
2023/07/20 01:55:37;;;;;;;2.25;1.20;;;20.80;84.20;;;;;;5089903;28;20023;-80
2023/07/20 01:58:03;;;;;;;0.95;0.80;;;20.80;84.10;;;;;;5089833;28;20480;-79
2023/07/20 02:00:29;;;;;;;1.10;1.00;;;20.90;84.10;;;;;;5089330;28;20020;-80
2023/07/20 02:02:54;;;;;;;1.73;1.02;;;20.90;84.10;;;;;;5089551;28;20472;-78
2023/07/20 02:05:20;;;;;;;2.15;1.00;;;20.90;84.00;;;;;;5089371;28;20118;-80
2023/07/20 02:07:45;;;;;;;2.72;1.00;;;20.90;84.00;;;;;;5090847;28;20077;-80
2023/07/20 02:10:11;;;;;;;1.85;0.90;;;20.90;84.00;;;;;;5088531;28;20027;-80
2023/07/20 02:12:37;;;;;;;1.13;0.85;;;20.90;84.00;;;;;;5090268;28;20058;-80
2023/07/20 02:15:03;;;;;;;1.80;0.88;;;20.90;83.90;;;;;;5090063;28;20024;-80
2023/07/20 02:17:28;;;;;;;1.27;0.90;;;20.90;84.00;;;;;;5088634;28;20031;-80
2023/07/20 02:19:55;;;;;;;1.65;1.10;;;20.90;84.00;;;;;;5092695;28;20016;-80
2023/07/20 02:22:21;;;;;;;1.45;1.10;;;20.90;84.10;;;;;;5092671;28;20016;-81
2023/07/20 02:24:48;;;;;;;1.00;0.90;;;20.80;84.00;;;;;;5092058;28;20057;-79
2023/07/20 02:27:13;;;;;;;1.30;0.90;;;20.80;84.10;;;;;;5092220;28;20058;-80
2023/07/20 02:29:40;;;;;;;1.30;1.00;;;20.80;84.20;;;;;;5093673;28;20461;-80
2023/07/20 02:32:06;;;;;;;2.00;1.10;;;20.80;84.30;;;;;;5092165;28;20420;-80
2023/07/20 02:34:33;;;;;;;1.77;1.00;;;20.80;84.40;;;;;;5091240;28;20020;-79
2023/07/20 02:37:00;;;;;;;1.67;0.88;;;20.60;84.30;;;;;;5091867;28;20070;-79
2023/07/20 02:39:27;;;;;;;1.10;0.90;;;20.70;84.40;;;;;;5091876;28;20421;-80
2023/07/20 02:41:53;;;;;;;1.13;0.80;;;20.70;84.30;;;;;;5091998;28;20103;-80
2023/07/20 02:44:18;;;;;;;1.08;0.80;;;20.70;84.40;;;;;;5091955;28;20111;-79
2023/07/20 02:46:44;;;;;;;1.42;0.90;;;20.70;84.40;;;;;;5091242;28;20106;-78
2023/07/20 02:49:09;;;;;;;1.88;1.00;;;20.70;84.40;;;;;;5098915;28;20023;-79
2023/07/20 02:51:35;;;;;;;1.67;0.90;;;20.70;84.40;;;;;;5109033;28;20492;-79
2023/07/20 02:54:01;;;;;;;1.45;0.90;;;20.70;84.40;;;;;;5111511;28;20028;-80
2023/07/20 02:56:26;;;;;;;2.60;0.90;;;20.70;84.40;;;;;;5111600;28;20023;-81
2023/07/20 02:58:52;;;;;;;1.92;1.00;;;20.70;84.40;;;;;;5112869;28;20106;-80
2023/07/20 03:01:18;;;;;;;1.98;0.98;;;20.70;84.40;;;;;;5111088;28;20069;-80
2023/07/20 03:03:46;;;;;;;0.82;0.80;;;20.70;84.40;;;;;;5111007;28;20016;-79
2023/07/20 03:06:14;;;;;;;1.73;1.00;;;20.70;84.40;;;;;;5111040;28;20023;-79
2023/07/20 03:08:41;;;;;;;1.67;0.98;;;20.70;84.50;;;;;;5111150;28;20092;-79
2023/07/20 03:11:06;;;;;;;1.80;1.00;;;20.70;84.40;;;;;;5111031;28;20047;-79
2023/07/20 03:13:32;;;;;;;1.40;1.00;;;20.70;84.40;;;;;;5110688;28;20059;-80
2023/07/20 03:15:57;;;;;;;1.00;0.90;;;20.70;84.40;;;;;;5110605;28;20027;-78
2023/07/20 03:18:23;;;;;;;1.60;0.90;;;20.70;84.40;;;;;;5111079;28;20027;-79
2023/07/20 03:20:48;;;;;;;1.60;1.13;;;20.70;84.40;;;;;;5110859;28;20019;-79
2023/07/20 03:23:15;;;;;;;1.20;0.90;;;20.70;84.30;;;;;;5113293;28;20012;-82
2023/07/20 03:25:41;;;;;;;1.17;0.70;;;20.70;84.30;;;;;;5113928;28;20103;-81
2023/07/20 03:28:06;;;;;;;1.00;0.88;;;20.80;84.30;;;;;;5110340;27;20827;-81
2023/07/20 03:30:32;;;;;;;0.98;0.82;;;20.80;84.20;;;;;;5129470;27;20138;-80
2023/07/20 03:32:57;;;;;;;1.00;0.90;;;20.80;84.20;;;;;;5137911;27;20118;-79
2023/07/20 03:35:23;;;;;;;1.15;0.90;;;20.90;84.20;;;;;;5119964;27;20023;-82
2023/07/20 03:37:48;;;;;;;1.08;0.95;;;20.80;84.10;;;;;;5118068;28;20578;-81
2023/07/20 03:40:15;;;;;;;1.95;1.05;;;20.80;84.10;;;;;;5118219;28;20109;-81
2023/07/20 03:42:41;;;;;;;0.93;0.82;;;20.80;84.10;;;;;;5117046;28;20020;-80
2023/07/20 03:45:07;;;;;;;1.80;0.82;;;21.30;84.30;;;;;;5116195;28;20495;-82
2023/07/20 03:47:33;;;;;;;1.35;0.85;;;20.90;84.00;;;;;;5117035;28;20095;-81
2023/07/20 03:49:58;;;;;;;1.85;0.90;;;20.90;84.10;;;;;;5117566;28;20735;-81
2023/07/20 03:52:24;;;;;;;1.73;1.02;;;20.80;84.10;;;;;;5115918;28;20069;-79
2023/07/20 03:54:51;;;;;;;1.65;1.00;;;20.80;84.00;;;;;;5114609;28;20027;-81
2023/07/20 03:57:16;;;;;;;1.60;1.10;;;20.80;84.00;;;;;;5116354;28;20035;-81
2023/07/20 03:59:46;;;;;;;1.10;0.90;;;20.80;84.10;;;;;;5116675;28;20396;-80
2023/07/20 04:02:11;;;;;;;1.42;0.90;;;20.70;84.20;;;;;;5113987;28;20016;-81
2023/07/20 04:04:37;;;;;;;2.30;1.10;;;20.70;84.30;;;;;;5111859;28;20026;-79
2023/07/20 04:07:02;;;;;;;1.40;0.90;;;20.70;84.40;;;;;;5111012;28;20055;-81
2023/07/20 04:09:28;;;;;;;2.53;0.90;;;20.70;84.40;;;;;;5111018;28;20397;-79
2023/07/20 04:11:54;;;;;;;1.45;1.00;;;20.70;84.40;;;;;;5112731;28;20020;-81
2023/07/20 04:14:19;;;;;;;2.47;1.00;;;20.70;84.40;;;;;;5110317;28;20031;-79
2023/07/20 04:16:46;;;;;;;1.23;0.90;;;20.60;84.40;;;;;;5109279;28;20188;-81
2023/07/20 04:19:12;;;;;;;1.73;1.10;;;20.70;84.40;;;;;;5110267;28;20040;-80
2023/07/20 04:21:41;;;;;;;1.40;0.98;;;20.70;84.50;;;;;;5109304;28;20032;-80
2023/07/20 04:24:07;;;;;;;1.70;0.93;;;20.70;84.50;;;;;;5108933;28;20069;-80
2023/07/20 04:26:32;;;;;;;1.52;0.90;;;20.70;84.50;;;;;;5112840;28;20047;-82
2023/07/20 04:28:59;;;;;;;1.17;0.98;;;20.70;84.50;;;;;;5119259;28;20032;-81
2023/07/20 04:31:24;;;;;;;0.88;0.80;;;20.70;85.00;;;;;;5113536;28;20035;-81
2023/07/20 04:33:50;;;;;;;2.30;1.08;;;20.70;84.40;;;;;;5113188;28;20027;-81
2023/07/20 04:36:19;;;;;;;1.02;0.85;;;20.70;84.50;;;;;;5112596;28;20071;-81
2023/07/20 04:38:45;;;;;;;1.33;1.05;;;20.70;84.40;;;;;;5112952;28;20024;-81
2023/07/20 04:41:12;;;;;;;2.00;0.98;;;20.70;84.40;;;;;;5111716;28;20059;-80
2023/07/20 04:43:42;;;;;;;1.65;0.90;;;20.70;84.40;;;;;;5112211;28;20027;-81
2023/07/20 04:46:08;;;;;;;1.65;0.90;;;20.70;84.40;;;;;;5112169;28;20034;-81
2023/07/20 04:48:34;;;;;;;1.48;0.80;;;20.60;84.30;;;;;;5116878;28;20035;-80
2023/07/20 04:50:59;;;;;;;1.45;1.02;;;20.60;84.30;;;;;;5112619;28;20023;-81
2023/07/20 04:53:25;;;;;;;1.20;0.90;;;20.70;84.40;;;;;;5113543;28;20477;-80
2023/07/20 04:55:51;;;;;;;1.70;1.10;;;20.70;84.30;;;;;;5112467;28;20027;-82
2023/07/20 04:58:21;;;;;;;3.05;0.90;;;20.70;84.30;;;;;;5112637;28;20508;-81
2023/07/20 05:00:48;;;;;;;1.77;0.90;;;20.70;84.20;;;;;;5112889;28;20606;-82
2023/07/20 05:03:14;;;;;;;1.55;1.00;;;20.70;84.20;;;;;;5111822;28;20038;-80
2023/07/20 05:05:39;;;;;;;1.30;0.90;;;20.80;84.20;;;;;;5094293;28;20024;-80
2023/07/20 05:08:05;;;;;;;1.05;0.80;;;20.80;84.10;;;;;;5102835;28;20033;-81
2023/07/20 05:10:32;;;;;;;1.58;0.90;;;20.90;84.10;;;;;;5111459;28;20034;-82
2023/07/20 05:12:58;;;;;;;1.70;0.90;;;20.80;84.00;;;;;;5112517;28;20063;-80
2023/07/20 05:15:23;;;;;;;2.00;1.00;;;20.80;84.00;;;;;;5110833;28;20027;-81
2023/07/20 05:17:49;;;;;;;1.23;0.95;;;20.80;83.90;;;;;;5111722;28;20648;-80
2023/07/20 05:20:14;;;;;;;1.40;0.90;;;20.80;83.90;;;;;;5111811;28;20030;-82
2023/07/20 05:22:40;;;;;;;2.75;1.20;;;20.80;83.90;;;;;;5110551;28;20118;-80
2023/07/20 05:25:10;;;;;;;1.63;1.20;;;20.80;84.00;;;;;;5109690;28;20023;-81
2023/07/20 05:27:40;;;;;;;1.70;0.90;;;20.80;84.00;;;;;;5110073;28;20613;-80
2023/07/20 05:30:07;;;;;;;1.42;1.00;;;20.80;83.90;;;;;;5109202;28;20027;-81
2023/07/20 05:32:32;;;;;;;2.28;1.02;;;20.80;83.90;;;;;;5110991;28;20026;-80
2023/07/20 05:34:58;;;;;;;1.10;0.75;;;20.70;84.00;;;;;;5110118;28;20110;-80
2023/07/20 05:37:24;;;;;;;1.92;0.93;;;20.70;84.10;;;;;;5110521;28;20493;-81
2023/07/20 05:39:50;;;;;;;1.38;0.93;;;20.70;84.20;;;;;;5115602;28;20491;-82
2023/07/20 05:42:16;;;;;;;11.18;1.48;;;20.70;84.10;;;;;;5114634;28;20489;-81
2023/07/20 05:44:41;;;;;;;7.32;1.45;;;20.70;82.50;;;;;;5113732;28;20030;-81
2023/07/20 05:47:07;;;;;;;8.73;1.70;;;20.60;83.20;;;;;;5113655;28;20027;-81
2023/07/20 05:49:34;;;;;;;3.25;1.20;;;20.60;82.50;;;;;;5113079;28;20133;-81
2023/07/20 05:52:00;;;;;;;3.92;1.23;;;20.70;83.00;;;;;;5114456;28;20042;-81
2023/07/20 05:54:26;;;;;;;3.17;1.30;;;20.60;83.10;;;;;;5114235;28;20027;-81
2023/07/20 05:56:52;;;;;;;6.10;1.42;;;20.70;83.10;;;;;;5113061;28;20023;-81
2023/07/20 05:59:19;;;;;;;6.70;1.20;;;20.70;82.90;;;;;;5114222;28;20103;-81
2023/07/20 06:01:45;;;;;;;3.08;1.20;;;20.80;82.90;;;;;;5112842;28;20023;-81
2023/07/20 06:04:10;;;;;;;5.35;1.40;;;20.70;82.80;;;;;;5114090;28;20084;-81
2023/07/20 06:06:36;;;;;;;4.55;1.25;;;20.70;82.80;;;;;;5112575;28;20396;-81
2023/07/20 06:09:09;;;;;;;3.97;1.50;;;20.70;82.80;;;;;;5114442;28;20028;-81
2023/07/20 06:11:35;;;;;;;5.40;1.20;;;20.70;82.80;;;;;;5112469;28;20036;-81
2023/07/20 06:14:01;;;;;;;7.25;1.10;;;20.70;82.90;;;;;;5112466;28;20031;-80
2023/07/20 06:16:26;;;;;;;5.53;1.20;;;20.70;82.90;;;;;;5112755;28;20061;-81
2023/07/20 06:18:52;;;;;;;3.20;1.10;;;20.80;83.00;;;;;;5112549;28;20020;-81
2023/07/20 06:21:17;;;;;;;4.10;1.20;;;20.70;83.00;;;;;;5114138;28;20031;-81
2023/07/20 06:23:43;;;;;;;3.13;1.02;;;20.70;83.00;;;;;;5112207;28;20028;-81
2023/07/20 06:26:08;;;;;;;4.80;1.30;;;20.80;83.10;;;;;;5111997;28;20026;-81
2023/07/20 06:28:34;;;;;;;2.90;1.17;;;20.80;83.10;;;;;;5111991;28;20481;-81
2023/07/20 06:31:01;;;;;;;3.88;0.98;;;20.80;82.90;;;;;;5113536;28;20020;-81
2023/07/20 06:33:26;;;;;;;2.90;1.10;;;20.80;82.80;;;;;;5111746;28;20024;-81
2023/07/20 06:35:52;;;;;;;1.92;0.90;;;20.90;82.80;;;;;;5113376;28;20387;-81
2023/07/20 06:38:18;;;;;;;3.55;1.10;;;20.90;82.70;;;;;;5111715;28;20020;-81
2023/07/20 06:40:46;;;;;;;6.05;1.13;;;20.90;82.60;;;;;;5111881;28;20066;-80
2023/07/20 06:43:12;;;;;;;2.58;1.30;;;20.90;82.50;;;;;;5111393;28;20020;-81
2023/07/20 06:45:37;;;;;;;3.15;1.10;;;21.00;82.40;;;;;;5111801;28;20114;-82
2023/07/20 06:48:03;;;;;;;3.92;1.10;;;21.10;82.30;;;;;;5111952;28;20035;-80
2023/07/20 06:50:29;;;;;;;2.55;1.20;;;21.00;82.10;;;;;;5111580;28;20024;-81
2023/07/20 06:52:54;;;;;;;1.83;1.00;;;21.00;82.10;;;;;;5111729;28;20020;-81
2023/07/20 06:55:20;;;;;;;2.22;0.98;;;21.10;82.20;;;;;;5111340;28;20103;-81
2023/07/20 06:57:45;;;;;;;4.03;1.02;;;21.00;82.10;;;;;;5111510;28;20032;-81
2023/07/20 07:00:12;;;;;;;3.72;1.20;;;21.10;82.20;;;;;;5112851;28;20024;-81
2023/07/20 07:02:38;;;;;;;2.15;0.90;;;21.10;82.20;;;;;;5111402;28;20023;-81
2023/07/20 07:05:04;;;;;;;3.53;1.20;;;21.00;82.10;;;;;;5113754;28;20393;-81
2023/07/20 07:07:29;;;;;;;1.50;0.90;;;21.00;82.10;;;;;;5115054;28;20069;-81
2023/07/20 07:09:55;;;;;;;1.45;0.80;;;21.00;82.30;;;;;;5115047;28;20016;-81
2023/07/20 07:12:20;;;;;;;1.73;0.80;;;21.00;82.40;;;;;;5114468;28;20473;-81
2023/07/20 07:14:46;;;;;;;2.67;0.93;;;21.00;82.50;;;;;;5116143;28;20027;-81
2023/07/20 07:17:11;;;;;;;2.10;0.88;;;21.00;82.50;;;;;;5114820;28;20020;-81
2023/07/20 07:19:38;;;;;;;3.67;0.95;;;20.90;82.50;;;;;;5114685;28;20035;-81
2023/07/20 07:22:04;;;;;;;2.42;1.00;;;21.00;82.50;;;;;;5115875;28;20389;-81
2023/07/20 07:24:33;;;;;;;5.07;0.90;;;21.00;82.50;;;;;;5114424;28;20019;-81
2023/07/20 07:26:59;;;;;;;3.38;1.00;;;21.00;82.40;;;;;;5114624;28;20093;-81
2023/07/20 07:29:25;;;;;;;2.25;0.82;;;21.10;82.40;;;;;;5114486;28;20473;-81
2023/07/20 07:31:51;;;;;;;2.17;0.80;;;21.10;82.20;;;;;;5114633;28;20023;-81
2023/07/20 07:34:16;;;;;;;3.55;0.80;;;21.10;82.10;;;;;;5114210;28;20050;-81
2023/07/20 07:36:42;;;;;;;1.08;0.80;;;21.10;82.20;;;;;;5114375;28;20393;-81
2023/07/20 07:39:09;;;;;;;2.83;0.90;;;21.10;82.10;;;;;;5115535;28;20088;-82
2023/07/20 07:41:35;;;;;;;1.73;0.98;;;21.10;81.90;;;;;;5118874;28;20033;-83
2023/07/20 07:44:00;;;;;;;2.78;0.70;;;21.10;82.00;;;;;;5118129;28;20026;-83
2023/07/20 07:46:26;;;;;;;0.90;0.63;;;21.10;82.00;;;;;;5119484;28;20481;-82
2023/07/20 07:48:51;;;;;;;1.00;0.77;;;21.20;82.00;;;;;;5117621;28;20036;-81
2023/07/20 07:51:17;;;;;;;1.27;0.73;;;21.20;82.00;;;;;;5119238;28;20020;-82
2023/07/20 07:53:43;;;;;;;2.30;0.82;;;21.20;81.90;;;;;;5117707;28;20024;-82
2023/07/20 07:56:09;;;;;;;1.95;1.00;;;21.20;81.80;;;;;;5117095;28;20502;-82
2023/07/20 07:58:34;;;;;;;1.02;0.70;;;21.20;81.80;;;;;;5118550;28;20099;-82
2023/07/20 08:01:00;;;;;;;1.98;0.80;;;21.30;81.80;;;;;;5117988;28;20114;-83
2023/07/20 08:03:26;;;;;;;1.55;0.70;;;21.30;81.70;;;;;;5119212;28;20019;-83
2023/07/20 08:05:59;;;;;;;1.65;0.80;;;21.30;81.60;;;;;;5117430;28;20392;-82
2023/07/20 08:08:25;;;;;;;1.92;0.70;;;21.40;81.50;;;;;;5119345;27;20020;-83
2023/07/20 08:10:53;;;;;;;1.38;0.80;;;21.40;81.30;;;;;;5119027;28;20024;-81
2023/07/20 08:13:18;;;;;;;2.03;0.82;;;21.40;81.30;;;;;;5116498;28;20304;-82
2023/07/20 08:15:48;;;;;;;3.10;0.88;;;21.40;81.10;;;;;;5116818;28;20484;-81
2023/07/20 08:18:14;;;;;;;1.67;0.88;;;21.50;81.10;;;;;;5118187;27;20093;-82
2023/07/20 08:20:39;;;;;;;1.63;0.70;;;21.50;81.10;;;;;;5116943;28;20477;-81
2023/07/20 08:23:05;;;;;;;0.68;0.55;;;21.50;81.00;;;;;;5118116;28;20016;-81
2023/07/20 08:25:30;;;;;;;1.10;0.70;;;21.50;80.90;;;;;;5116117;28;20477;-82
2023/07/20 08:27:56;;;;;;;0.70;0.70;;;21.50;80.80;;;;;;5117999;28;20110;-82
2023/07/20 08:30:23;;;;;;;1.10;0.63;;;21.60;80.80;;;;;;5117510;28;20028;-81
2023/07/20 08:32:48;;;;;;;1.73;0.95;;;21.50;80.70;;;;;;5115728;28;20023;-81
2023/07/20 08:35:15;;;;;;;1.13;0.80;;;21.50;80.70;;;;;;5117201;28;20034;-82
2023/07/20 08:37:41;;;;;;;1.23;0.73;;;21.60;80.80;;;;;;5117031;28;20497;-81
2023/07/20 08:40:08;;;;;;;0.80;0.70;;;21.60;80.80;;;;;;5115333;28;20034;-83
2023/07/20 08:42:34;;;;;;;2.63;0.70;;;21.50;80.80;;;;;;5114598;28;20080;-82
2023/07/20 08:45:00;;;;;;;0.93;0.70;;;21.50;80.90;;;;;;5110568;28;20059;-81
2023/07/20 08:47:26;;;;;;;0.85;0.60;;;21.50;81.00;;;;;;5112901;28;20030;-82
2023/07/20 08:49:53;;;;;;;1.27;0.80;;;21.50;81.20;;;;;;5112272;28;20081;-81
2023/07/20 08:52:18;;;;;;;1.17;0.80;;;21.40;81.30;;;;;;5112859;28;20023;-80
2023/07/20 08:54:44;;;;;;;1.48;0.75;;;21.50;81.30;;;;;;5112711;28;20544;-80
2023/07/20 08:57:14;;;;;;;0.85;0.52;;;21.50;81.40;;;;;;5111827;28;20032;-80
2023/07/20 08:59:40;;;;;;;1.02;0.80;;;21.50;81.30;;;;;;5112415;28;20134;-80
2023/07/20 09:02:08;;;;;;;0.90;0.70;;;21.50;81.00;;;;;;5110768;28;20034;-80
2023/07/20 09:04:34;;;;;;;1.73;0.70;;;21.50;81.10;;;;;;5110725;27;20106;-83
2023/07/20 09:07:00;;;;;;;1.33;0.70;;;21.50;80.70;;;;;;5131341;27;20122;-81
2023/07/20 09:09:25;;;;;;;0.60;0.60;;;21.60;80.70;;;;;;5130173;27;20121;-81
2023/07/20 09:11:51;;;;;;;1.63;0.80;;;21.60;80.90;;;;;;5130083;27;20019;-81
2023/07/20 09:14:16;;;;;;;1.60;0.70;;;21.60;80.80;;;;;;5131174;27;20400;-81
2023/07/20 09:16:50;;;;;;;1.13;0.70;;;21.60;81.00;;;;;;5134239;27;20026;-82
2023/07/20 09:19:16;;;;;;;1.25;0.68;;;21.50;81.00;;;;;;5135839;27;20023;-81
2023/07/20 09:21:46;;;;;;;1.55;0.60;;;21.50;81.00;;;;;;5135813;27;20034;-82
2023/07/20 09:24:12;;;;;;;1.02;0.70;;;21.50;81.20;;;;;;5133723;27;20391;-81
2023/07/20 09:26:42;;;;;;;1.75;0.80;;;21.50;80.80;;;;;;5135361;27;20096;-81
2023/07/20 09:29:11;;;;;;;0.98;0.70;;;21.50;80.90;;;;;;5135214;27;20026;-80
2023/07/20 09:31:38;;;;;;;1.35;0.65;;;21.50;80.80;;;;;;5134200;27;20031;-80
2023/07/20 09:34:04;;;;;;;1.17;0.68;;;21.60;80.90;;;;;;5134744;27;20023;-80
2023/07/20 09:36:36;;;;;;;0.75;0.60;;;21.50;80.70;;;;;;5135484;27;20023;-81
2023/07/20 09:39:03;;;;;;;0.80;0.70;;;21.60;80.70;;;;;;5134954;27;20022;-79
2023/07/20 09:41:29;;;;;;;1.55;0.52;;;21.60;80.60;;;;;;5133488;27;20020;-80
2023/07/20 09:43:55;;;;;;;0.77;0.63;;;21.70;80.40;;;;;;5133540;27;20072;-81
2023/07/20 09:46:21;;;;;;;1.15;0.63;;;21.70;80.20;;;;;;5133102;27;20062;-82
2023/07/20 09:48:53;;;;;;;2.38;0.98;;;21.70;80.10;;;;;;5133194;27;20160;-81
2023/07/20 09:51:24;;;;;;;2.28;0.88;;;21.80;80.00;;;;;;5132963;27;20031;-81
2023/07/20 09:53:53;;;;;;;1.02;0.60;;;21.80;79.80;;;;;;5134080;27;20061;-81
2023/07/20 09:56:21;;;;;;;1.00;0.63;;;21.80;79.70;;;;;;5133266;27;20076;-81
2023/07/20 09:58:47;;;;;;;1.55;0.70;;;21.90;79.70;;;;;;5133356;27;20035;-81
2023/07/20 10:01:16;;;;;;;1.25;0.70;;;21.80;79.50;;;;;;5134374;27;20064;-81
2023/07/20 10:03:45;;;;;;;1.55;0.90;;;21.90;79.50;;;;;;5132475;28;20016;-80
2023/07/20 10:06:15;;;;;;;1.25;0.70;;;21.90;79.40;;;;;;5132594;28;20023;-80
2023/07/20 10:08:41;;;;;;;1.20;0.70;;;21.90;79.40;;;;;;5132798;28;20106;-80
2023/07/20 10:11:08;;;;;;;1.33;0.50;;;21.90;79.60;;;;;;5132523;28;20077;-80
2023/07/20 10:13:38;;;;;;;0.85;0.70;;;21.80;79.80;;;;;;5132370;28;20405;-80
2023/07/20 10:16:14;;;;;;;1.40;0.60;;;21.80;79.90;;;;;;5134014;27;20525;-81
2023/07/20 10:18:59;;;;;;;1.45;0.65;;;21.80;79.60;;;;;;5132620;28;20377;-81
2023/07/20 10:21:25;;;;;;;1.25;0.80;;;21.70;79.50;;;;;;5133816;27;20038;-81
2023/07/20 10:23:51;;;;;;;0.70;0.60;;;21.80;79.60;;;;;;5133486;27;20477;-81
2023/07/20 10:26:16;;;;;;;0.93;0.70;;;21.80;79.70;;;;;;5132312;28;20038;-81
2023/07/20 10:28:43;;;;;;;1.33;0.80;;;21.70;79.60;;;;;;5132254;28;20062;-80
2023/07/20 10:31:11;;;;;;;0.80;0.70;;;21.80;79.70;;;;;;5133435;27;20480;-80
2023/07/20 10:33:38;;;;;;;0.85;0.68;;;21.70;79.80;;;;;;5131996;28;20073;-80
2023/07/20 10:36:05;;;;;;;1.38;0.70;;;21.70;79.80;;;;;;5132132;28;20015;-81
2023/07/20 10:38:46;;;;;;;0.93;0.70;;;21.80;80.10;;;;;;5132645;27;20023;-80
2023/07/20 10:41:19;;;;;;;;;;;21.70;80.10;;;;;;5138089;27;20035;-80
2023/07/20 10:43:45;;;;;;;0.88;0.63;;;21.70;80.10;;;;;;5136042;27;19910;-80
2023/07/20 10:46:12;;;;;;;1.08;0.65;;;21.70;79.90;;;;;;5136106;27;20477;-80
2023/07/20 10:49:04;;;;;;;1.17;0.75;;;21.80;80.00;;;;;;5137287;27;20027;-80
2023/07/20 10:51:30;;;;;;;1.02;0.55;;;21.70;80.00;;;;;;5136678;27;20049;-82
2023/07/20 10:54:02;;;;;;;1.45;0.73;;;21.70;80.20;;;;;;5141926;27;20056;-82
2023/07/20 10:56:31;;;;;;;1.00;0.65;;;21.70;80.20;;;;;;5141955;27;20058;-81
2023/07/20 10:59:00;;;;;;;0.95;0.60;;;21.70;80.20;;;;;;5141804;27;20019;-81
2023/07/20 11:01:33;;;;;;;0.75;0.60;;;21.70;80.20;;;;;;5143157;27;20109;-82
2023/07/20 11:04:02;;;;;;;1.15;0.70;;;21.70;80.10;;;;;;5142862;27;20132;-81
2023/07/20 11:06:28;;;;;;;0.80;0.70;;;21.80;80.20;;;;;;5141413;27;20496;-80
2023/07/20 11:09:10;;;;;;;0.80;0.60;;;21.80;80.10;;;;;;5141594;27;20030;-82
2023/07/20 11:11:38;;;;;;;0.73;0.70;;;21.80;80.00;;;;;;5142842;27;20021;-81
2023/07/20 11:14:25;;;;;;;0.65;0.60;;;21.80;79.90;;;;;;5142493;27;20076;-83
2023/07/20 11:16:52;;;;;;;0.70;0.50;;;21.80;79.80;;;;;;5142317;27;20027;-82
2023/07/20 11:19:25;;;;;;;0.63;0.63;;;21.90;79.70;;;;;;5140710;27;20388;-82
2023/07/20 11:21:55;;;;;;;0.75;0.50;;;21.80;79.60;;;;;;5141966;27;20392;-82
2023/07/20 11:24:21;;;;;;;1.17;0.80;;;21.80;79.70;;;;;;5141849;27;20101;-81
2023/07/20 11:26:49;;;;;;;0.82;0.60;;;21.80;79.60;;;;;;5141224;27;20070;-81
2023/07/20 11:29:16;;;;;;;1.23;0.75;;;21.80;79.60;;;;;;5142124;27;20027;-80
2023/07/20 11:31:43;;;;;;;0.80;0.63;;;21.80;79.70;;;;;;5140080;27;20110;-82
2023/07/20 11:34:13;;;;;;;1.38;0.88;;;21.70;79.70;;;;;;5140402;27;20030;-81
2023/07/20 11:36:42;;;;;;;0.90;0.80;;;21.70;79.80;;;;;;5141206;27;20066;-81
2023/07/20 11:39:11;;;;;;;1.27;0.80;;;21.80;79.90;;;;;;5141993;27;20034;-81
2023/07/20 11:41:38;;;;;;;0.65;0.65;;;21.70;80.00;;;;;;5141050;27;20058;-80
2023/07/20 11:44:06;;;;;;;0.80;0.70;;;21.70;80.00;;;;;;5141049;27;20019;-81
2023/07/20 11:46:32;;;;;;;0.60;0.60;;;21.70;80.10;;;;;;5139723;27;20582;-80
2023/07/20 11:49:01;;;;;;;0.70;0.70;;;21.60;80.10;;;;;;5138310;27;20109;-82
2023/07/20 11:51:28;;;;;;;1.35;0.90;;;21.70;80.20;;;;;;5138529;27;20030;-81
2023/07/20 11:53:55;;;;;;;0.60;0.60;;;21.60;80.10;;;;;;5139655;27;20087;-81
2023/07/20 11:56:20;;;;;;;0.73;0.60;;;21.70;79.80;;;;;;5140306;27;20058;-82
2023/07/20 11:58:46;;;;;;;1.05;0.77;;;21.60;80.20;;;;;;5140074;27;20019;-82
2023/07/20 12:01:13;;;;;;;1.10;0.80;;;21.60;80.40;;;;;;5138367;27;20059;-81
2023/07/20 12:03:39;;;;;;;0.80;0.70;;;21.60;80.40;;;;;;5137566;27;20019;-82
2023/07/20 12:06:11;;;;;;;1.00;0.73;;;21.70;80.20;;;;;;5137308;27;20020;-80
2023/07/20 12:08:44;;;;;;;0.88;0.70;;;21.60;80.10;;;;;;5137310;27;20019;-81
2023/07/20 12:11:10;;;;;;;1.00;0.80;;;21.60;80.10;;;;;;5139440;27;20018;-82
2023/07/20 12:13:44;;;;;;;1.10;0.77;;;21.60;80.40;;;;;;5133105;27;20023;-82
2023/07/20 12:16:15;;;;;;;1.05;0.70;;;21.60;80.30;;;;;;5095995;28;20393;-80
2023/07/20 12:18:42;;;;;;;1.25;0.90;;;21.50;80.60;;;;;;5096730;28;20027;-81
2023/07/20 12:21:10;;;;;;;0.90;0.73;;;21.50;80.50;;;;;;5097007;28;20397;-81
2023/07/20 12:23:38;;;;;;;1.17;0.85;;;21.50;80.50;;;;;;5096402;28;20052;-81
2023/07/20 12:26:07;;;;;;;0.90;0.70;;;21.50;80.50;;;;;;5095070;28;20114;-80
2023/07/20 12:28:32;;;;;;;0.95;0.77;;;21.50;80.50;;;;;;5094969;28;20024;-80
2023/07/20 12:30:58;;;;;;;1.00;0.90;;;21.50;80.60;;;;;;5096581;28;20028;-80
2023/07/20 12:33:24;;;;;;;0.93;0.80;;;21.50;80.50;;;;;;5096467;28;20095;-81
2023/07/20 12:35:51;;;;;;;1.23;0.90;;;21.50;80.50;;;;;;5094518;28;20078;-80
2023/07/20 12:38:16;;;;;;;0.82;0.80;;;21.50;80.50;;;;;;5095753;28;20039;-80
2023/07/20 12:40:42;;;;;;;1.00;0.90;;;21.60;80.70;;;;;;5095990;28;20024;-80
2023/07/20 12:43:08;;;;;;;3.33;1.50;;;21.50;81.00;;;;;;5095475;28;20446;-81
2023/07/20 12:45:33;;;;;;;5.03;1.50;;;21.40;78.70;;;;;;5095499;28;20020;-81
2023/07/20 12:47:59;;;;;;;3.80;1.50;;;21.40;77.70;;;;;;5094519;28;20501;-79